createdAt,value
2022-08-18T00:01:31.583Z,19.58
2022-08-18T00:04:03.030Z,19.58
2022-08-18T00:06:30.145Z,19.48
2022-08-18T00:09:00.465Z,19.50
2022-08-18T00:11:27.445Z,19.51
2022-08-18T00:13:53.800Z,19.46
2022-08-18T00:16:20.196Z,19.44
2022-08-18T00:18:46.564Z,19.42
2022-08-18T00:21:12.940Z,19.37
2022-08-18T00:23:39.299Z,19.35
2022-08-18T00:26:05.821Z,19.38
2022-08-18T00:28:32.193Z,19.28
2022-08-18T00:30:58.553Z,19.31
2022-08-18T00:33:24.960Z,19.26
2022-08-18T00:35:51.319Z,19.26
2022-08-18T00:38:24.247Z,19.21
2022-08-18T00:40:52.132Z,19.15
2022-08-18T00:43:39.792Z,19.13
2022-08-18T00:46:06.931Z,19.09
2022-08-18T00:48:33.312Z,19.14
2022-08-18T00:51:02.148Z,19.07
2022-08-18T00:53:35.448Z,19.09
2022-08-18T00:56:04.106Z,19.05
2022-08-18T00:58:35.663Z,19.13
2022-08-18T01:01:03.378Z,19.06
2022-08-18T01:03:29.782Z,19.01
2022-08-18T01:05:57.736Z,19.04
2022-08-18T01:08:29.263Z,18.98
2022-08-18T01:10:55.998Z,18.96
2022-08-18T01:13:25.438Z,18.93
2022-08-18T01:15:51.806Z,18.93
2022-08-18T01:18:36.932Z,18.88
2022-08-18T01:21:25.182Z,18.83
2022-08-18T01:23:51.664Z,18.83
2022-08-18T01:26:18.139Z,18.76
2022-08-18T01:28:45.222Z,18.82
2022-08-18T01:31:13.427Z,18.76
2022-08-18T01:33:42.226Z,18.75
2022-08-18T01:36:08.654Z,18.71
2022-08-18T01:38:35.014Z,18.67
2022-08-18T01:41:26.151Z,18.75
2022-08-18T01:43:48.053Z,18.72
2022-08-18T01:46:20.129Z,18.71
2022-08-18T01:48:46.657Z,18.65
2022-08-18T01:51:13.603Z,18.66
2022-08-18T01:53:39.960Z,18.65
2022-08-18T01:56:06.881Z,18.71
2022-08-18T01:58:33.482Z,18.64
2022-08-18T02:01:01.695Z,18.66
2022-08-18T02:03:32.968Z,18.64
2022-08-18T02:06:00.268Z,18.62
2022-08-18T02:08:28.098Z,18.60
2022-08-18T02:10:55.463Z,18.52
2022-08-18T02:13:21.837Z,18.59
2022-08-18T02:15:48.207Z,18.50
2022-08-18T02:18:15.617Z,18.52
2022-08-18T02:20:59.476Z,18.53
2022-08-18T02:23:25.855Z,18.55
2022-08-18T02:25:53.516Z,18.50
2022-08-18T02:28:19.866Z,18.50
2022-08-18T02:30:46.251Z,18.44
2022-08-18T02:33:12.694Z,18.45
2022-08-18T02:35:39.141Z,18.43
2022-08-18T02:38:05.988Z,18.43
2022-08-18T02:40:36.332Z,18.42
2022-08-18T02:43:06.331Z,18.39
2022-08-18T02:45:32.816Z,18.38
2022-08-18T02:47:59.186Z,18.31
2022-08-18T02:50:25.618Z,18.36
2022-08-18T02:52:51.983Z,18.40
2022-08-18T02:55:18.439Z,18.43
2022-08-18T02:57:45.824Z,18.36
2022-08-18T03:00:14.496Z,18.26
2022-08-18T03:02:42.030Z,18.15
2022-08-18T03:05:14.715Z,18.12
2022-08-18T03:07:41.315Z,18.15
2022-08-18T03:10:31.631Z,18.21
2022-08-18T03:12:54.339Z,18.01
2022-08-18T03:15:22.674Z,17.95
2022-08-18T03:17:53.121Z,17.93
2022-08-18T03:20:19.806Z,17.85
2022-08-18T03:22:57.634Z,17.74
2022-08-18T03:25:24.813Z,17.60
2022-08-18T03:27:51.411Z,17.61
2022-08-18T03:30:17.927Z,17.59
2022-08-18T03:32:45.722Z,17.45
2022-08-18T03:35:14.558Z,17.42
2022-08-18T03:37:40.966Z,17.34
2022-08-18T03:40:07.690Z,17.39
2022-08-18T03:42:34.250Z,17.41
2022-08-18T03:45:00.639Z,17.40
2022-08-18T03:47:39.859Z,17.27
2022-08-18T03:50:06.545Z,17.30
2022-08-18T03:52:32.914Z,17.16
2022-08-18T03:55:00.063Z,17.18
2022-08-18T03:57:33.149Z,17.34
2022-08-18T04:00:06.100Z,17.28
2022-08-18T04:02:32.461Z,17.22
2022-08-18T04:04:58.883Z,17.16
2022-08-18T04:07:25.239Z,17.09
2022-08-18T04:09:51.618Z,17.08
2022-08-18T04:12:18.087Z,17.04
2022-08-18T04:14:47.691Z,17.09
2022-08-18T04:17:14.086Z,17.09
2022-08-18T04:19:40.492Z,17.07
2022-08-18T04:22:06.905Z,17.02
2022-08-18T04:24:34.562Z,17.02
2022-08-18T04:27:02.435Z,17.00
2022-08-18T04:29:28.799Z,16.96
2022-08-18T04:31:55.185Z,17.02
2022-08-18T04:34:22.634Z,17.04
2022-08-18T04:36:49.264Z,17.06
2022-08-18T04:39:15.729Z,17.32
2022-08-18T04:41:43.569Z,17.51
2022-08-18T04:44:10.224Z,17.60
2022-08-18T04:46:40.621Z,17.55
2022-08-18T04:49:08.002Z,17.76
2022-08-18T04:52:39.394Z,17.62
2022-08-18T04:54:20.789Z,17.69
2022-08-18T04:56:47.172Z,17.80
2022-08-18T04:59:13.669Z,17.86
2022-08-18T05:01:40.994Z,17.92
2022-08-18T05:04:09.212Z,17.88
2022-08-18T05:06:35.613Z,18.13
2022-08-18T05:09:04.591Z,18.11
2022-08-18T05:11:34.590Z,18.20
2022-08-18T05:14:01.364Z,18.23
2022-08-18T05:16:28.071Z,18.14
2022-08-18T05:18:54.715Z,18.17
2022-08-18T05:21:22.366Z,18.26
2022-08-18T05:23:51.175Z,18.52
2022-08-18T05:26:17.653Z,18.45
2022-08-18T05:28:44.298Z,18.41
2022-08-18T05:31:13.791Z,18.38
2022-08-18T05:33:40.500Z,18.32
2022-08-18T05:36:11.936Z,18.32
2022-08-18T05:38:41.316Z,18.34
2022-08-18T05:41:14.284Z,18.24
2022-08-18T05:43:51.169Z,18.28
2022-08-18T05:46:18.631Z,18.30
2022-08-18T05:48:48.346Z,18.36
2022-08-18T05:51:16.922Z,18.31
2022-08-18T05:54:02.235Z,18.41
2022-08-18T05:56:47.920Z,18.32
2022-08-18T05:59:19.169Z,18.38
2022-08-18T06:01:46.734Z,18.46
2022-08-18T06:04:19.510Z,18.39
2022-08-18T06:06:48.006Z,18.34
2022-08-18T06:09:34.964Z,18.31
2022-08-18T06:12:05.098Z,18.35
2022-08-18T06:14:31.497Z,18.31
2022-08-18T06:17:01.119Z,18.41
2022-08-18T06:19:36.702Z,18.36
2022-08-18T06:22:07.699Z,18.44
2022-08-18T06:24:54.319Z,18.54
2022-08-18T06:27:40.908Z,18.63
2022-08-18T06:30:15.170Z,18.74
2022-08-18T06:32:48.787Z,18.72
2022-08-18T06:35:18.287Z,18.86
2022-08-18T06:38:18.331Z,19.08
2022-08-18T06:40:47.364Z,19.13
2022-08-18T06:43:15.769Z,19.36
2022-08-18T06:45:42.136Z,19.41
2022-08-18T06:48:20.810Z,19.73
2022-08-18T06:50:54.182Z,19.92
2022-08-18T06:53:27.398Z,19.89
2022-08-18T06:55:54.728Z,19.99
2022-08-18T06:58:29.999Z,19.96
2022-08-18T07:01:00.736Z,19.90
2022-08-18T07:03:36.476Z,19.71
2022-08-18T07:06:04.839Z,19.78
2022-08-18T07:08:32.027Z,19.89
2022-08-18T07:11:10.649Z,19.96
2022-08-18T07:13:40.600Z,20.21
2022-08-18T07:16:26.444Z,20.12
2022-08-18T07:19:11.191Z,19.69
2022-08-18T07:21:38.130Z,19.62
2022-08-18T07:24:23.695Z,19.76
2022-08-18T07:27:01.435Z,19.81
2022-08-18T07:29:28.535Z,20.20
2022-08-18T07:31:55.039Z,20.25
2022-08-18T07:34:28.056Z,20.12
2022-08-18T07:37:14.335Z,19.91
2022-08-18T07:39:52.054Z,19.86
2022-08-18T07:42:37.186Z,19.97
2022-08-18T07:45:19.743Z,20.08
2022-08-18T07:47:54.215Z,20.13
2022-08-18T07:50:55.137Z,20.17
2022-08-18T07:53:40.448Z,20.27
2022-08-18T07:56:15.638Z,20.20
2022-08-18T07:58:44.608Z,20.02
2022-08-18T08:01:26.421Z,20.05
2022-08-18T08:03:54.948Z,20.08
2022-08-18T08:06:27.507Z,20.09
2022-08-18T08:09:06.898Z,20.15
2022-08-18T08:11:35.973Z,20.37
2022-08-18T08:14:09.097Z,20.58
2022-08-18T08:16:41.438Z,20.79
2022-08-18T08:19:56.766Z,20.73
2022-08-18T08:22:28.552Z,20.76
2022-08-18T08:25:13.688Z,21.04
2022-08-18T08:28:21.968Z,20.69
2022-08-18T08:31:33.242Z,20.61
2022-08-18T08:34:02.856Z,20.99
2022-08-18T08:36:33.700Z,21.02
2022-08-18T08:39:17.923Z,21.11
2022-08-18T08:41:50.990Z,21.31
2022-08-18T08:44:21.516Z,21.76
2022-08-18T08:47:00.040Z,21.86
2022-08-18T08:50:01.973Z,21.58
2022-08-18T08:52:47.708Z,21.75
2022-08-18T08:55:16.128Z,21.80
2022-08-18T08:57:47.546Z,21.65
2022-08-18T09:00:15.198Z,22.06
2022-08-18T09:03:00.651Z,22.14
2022-08-18T09:05:30.816Z,22.29
2022-08-18T09:08:13.477Z,22.09
2022-08-18T09:10:59.400Z,22.08
2022-08-18T09:13:42.596Z,21.99
2022-08-18T09:16:13.943Z,22.39
2022-08-18T09:18:45.535Z,22.11
2022-08-18T09:21:18.530Z,21.63
2022-08-18T09:23:46.295Z,21.25
2022-08-18T09:26:35.133Z,21.08
2022-08-18T09:29:18.925Z,21.81
2022-08-18T09:31:45.823Z,22.21
2022-08-18T09:34:12.756Z,22.19
2022-08-18T09:36:41.959Z,21.90
2022-08-18T09:39:53.200Z,21.90
2022-08-18T09:42:49.881Z,21.86
2022-08-18T09:48:30.383Z,21.33
2022-08-18T09:50:57.116Z,21.60
2022-08-18T09:53:34.635Z,21.76
2022-08-18T09:56:05.586Z,21.73
2022-08-18T09:58:52.747Z,22.09
2022-08-18T10:01:22.984Z,22.45
2022-08-18T10:04:08.388Z,22.58
2022-08-18T10:06:38.571Z,22.58
2022-08-18T10:09:26.810Z,22.67
2022-08-18T10:12:18.153Z,22.76
2022-08-18T10:15:03.358Z,22.88
2022-08-18T10:17:42.198Z,22.89
2022-08-18T10:20:25.968Z,22.73
2022-08-18T10:23:04.510Z,22.35
2022-08-18T10:25:38.465Z,22.35
2022-08-18T10:28:05.893Z,22.32
2022-08-18T10:30:56.971Z,22.70
2022-08-18T10:33:43.900Z,22.51
2022-08-18T10:36:11.024Z,22.57
2022-08-18T10:38:39.217Z,22.92
2022-08-18T10:41:15.271Z,23.33
2022-08-18T10:43:55.128Z,23.79
2022-08-18T10:46:26.494Z,24.02
2022-08-18T10:49:04.278Z,24.01
2022-08-18T10:52:00.411Z,23.73
2022-08-18T10:54:25.254Z,23.88
2022-08-18T10:56:57.919Z,23.55
2022-08-18T11:03:01.976Z,24.15
2022-08-18T11:08:17.509Z,24.03
2022-08-18T11:11:06.253Z,24.12
2022-08-18T11:13:35.243Z,23.79
2022-08-18T11:16:13.346Z,23.73
2022-08-18T11:18:42.962Z,23.62
2022-08-18T11:21:30.497Z,23.07
2022-08-18T11:24:17.117Z,23.34
2022-08-18T11:26:54.720Z,23.72
2022-08-18T11:29:32.369Z,24.09
2022-08-18T11:32:22.488Z,24.34
2022-08-18T11:34:53.659Z,24.64
2022-08-18T11:37:24.507Z,24.92
2022-08-18T11:39:51.365Z,24.97
2022-08-18T11:42:21.709Z,24.17
2022-08-18T11:44:53.468Z,24.95
2022-08-18T11:50:08.820Z,25.78
2022-08-18T11:52:45.989Z,26.16
2022-08-18T11:55:24.249Z,26.64
2022-08-18T11:57:58.594Z,27.05
2022-08-18T12:00:36.228Z,26.31
2022-08-18T12:03:11.549Z,26.16
2022-08-18T12:05:53.891Z,26.66
2022-08-18T12:08:41.871Z,25.55
2022-08-18T12:11:27.209Z,25.09
2022-08-18T12:14:32.209Z,25.03
2022-08-18T12:16:57.968Z,25.48
2022-08-18T12:19:28.555Z,25.46
2022-08-18T12:21:55.704Z,24.72
2022-08-18T12:24:26.258Z,24.23
2022-08-18T12:27:01.099Z,24.50
2022-08-18T12:29:32.724Z,24.52
2022-08-18T12:32:03.209Z,24.33
2022-08-18T12:34:35.010Z,23.88
2022-08-18T12:37:01.489Z,23.90
2022-08-18T12:39:28.525Z,23.90
2022-08-18T12:41:55.099Z,24.09
2022-08-18T12:44:21.558Z,24.20
2022-08-18T12:46:48.536Z,24.16
2022-08-18T12:49:22.472Z,23.78
2022-08-18T12:51:50.515Z,23.75
2022-08-18T12:54:17.386Z,24.09
2022-08-18T12:56:43.862Z,24.55
2022-08-18T12:59:10.403Z,24.78
2022-08-18T13:01:38.072Z,24.77
2022-08-18T13:04:13.107Z,24.78
2022-08-18T13:06:41.298Z,24.62
2022-08-18T13:09:35.696Z,24.64
2022-08-18T13:12:15.118Z,24.79
2022-08-18T13:14:43.435Z,24.89
2022-08-18T13:17:15.230Z,24.82
2022-08-18T13:19:56.382Z,25.37
2022-08-18T13:22:24.066Z,25.50
2022-08-18T13:24:59.260Z,25.45
2022-08-18T13:27:26.773Z,25.38
2022-08-18T13:29:59.331Z,24.97
2022-08-18T13:32:26.261Z,24.85
2022-08-18T13:34:54.703Z,24.75
2022-08-18T13:37:26.694Z,24.93
2022-08-18T13:39:54.303Z,25.07
2022-08-18T13:42:26.220Z,25.04
2022-08-18T13:45:22.741Z,24.88
2022-08-18T13:47:47.597Z,24.71
2022-08-18T13:50:17.708Z,24.75
2022-08-18T13:52:46.271Z,24.60
2022-08-18T13:55:16.903Z,24.75
2022-08-18T13:57:50.205Z,24.70
2022-08-18T14:00:29.597Z,24.79
2022-08-18T14:02:58.832Z,24.60
2022-08-18T14:05:36.824Z,24.38
2022-08-18T14:08:12.554Z,24.38
2022-08-18T14:10:48.196Z,24.38
2022-08-18T14:13:24.260Z,24.48
2022-08-18T14:15:53.674Z,24.84
2022-08-18T14:18:29.153Z,24.78
2022-08-18T14:21:16.027Z,24.60
2022-08-18T14:24:01.154Z,24.67
2022-08-18T14:26:46.631Z,24.92
2022-08-18T14:29:17.027Z,24.96
2022-08-18T14:31:45.157Z,24.82
2022-08-18T14:34:11.584Z,24.52
2022-08-18T14:36:38.283Z,24.66
2022-08-18T14:39:06.068Z,24.89
2022-08-18T14:41:34.935Z,24.89
2022-08-18T14:44:12.382Z,24.69
2022-08-18T14:46:41.071Z,24.71
2022-08-18T14:49:08.001Z,24.69
2022-08-18T14:51:34.345Z,24.83
2022-08-18T14:54:01.143Z,24.65
2022-08-18T14:56:29.645Z,24.87
2022-08-18T14:59:08.153Z,24.63
2022-08-18T15:01:35.286Z,24.68
2022-08-18T15:04:18.706Z,24.58
2022-08-18T15:06:46.181Z,24.47
2022-08-18T15:09:23.354Z,24.79
2022-08-18T15:11:51.244Z,24.66
2022-08-18T15:14:21.349Z,24.73
2022-08-18T15:16:59.074Z,24.63
2022-08-18T15:19:58.819Z,24.56
2022-08-18T15:22:30.945Z,24.42
2022-08-18T15:25:17.283Z,24.54
2022-08-18T15:27:44.851Z,24.26
2022-08-18T15:30:13.390Z,24.21
2022-08-18T15:32:46.213Z,24.36
2022-08-18T15:35:16.185Z,24.38
2022-08-18T15:37:43.651Z,24.33
2022-08-18T15:40:35.481Z,24.44
2022-08-18T15:43:09.904Z,24.33
2022-08-18T15:45:42.894Z,24.49
2022-08-18T15:48:17.780Z,24.47
2022-08-18T15:50:44.757Z,24.52
2022-08-18T15:53:18.629Z,24.53
2022-08-18T15:55:44.990Z,24.32
2022-08-18T15:58:12.401Z,24.24
2022-08-18T16:00:43.789Z,24.26
2022-08-18T16:03:14.666Z,24.10
2022-08-18T16:05:45.663Z,24.04
2022-08-18T16:08:12.325Z,24.15
2022-08-18T16:10:41.417Z,24.02
2022-08-18T16:13:07.794Z,24.28
2022-08-18T16:15:37.073Z,24.33
2022-08-18T16:18:03.554Z,24.22
2022-08-18T16:20:29.910Z,24.11
2022-08-18T16:22:57.888Z,24.08
2022-08-18T16:25:24.291Z,23.89
2022-08-18T16:27:50.720Z,24.00
2022-08-18T16:30:18.083Z,23.94
2022-08-18T16:32:45.137Z,23.91
2022-08-18T16:35:11.980Z,23.81
2022-08-18T16:37:38.413Z,23.92
2022-08-18T16:40:05.398Z,23.84
2022-08-18T16:42:33.073Z,23.66
2022-08-18T16:44:59.718Z,23.60
2022-08-18T16:47:26.989Z,23.62
2022-08-18T16:49:58.311Z,23.58
2022-08-18T16:52:25.197Z,23.57
2022-08-18T16:54:57.682Z,23.52
2022-08-18T16:57:53.412Z,23.45
2022-08-18T17:00:40.499Z,23.57
2022-08-18T17:03:25.441Z,23.48
2022-08-18T17:05:58.579Z,23.41
2022-08-18T17:08:25.343Z,23.21
2022-08-18T17:10:51.717Z,23.13
2022-08-18T17:13:18.120Z,23.18
2022-08-18T17:15:49.560Z,23.16
2022-08-18T17:18:16.100Z,23.20
2022-08-18T17:20:42.474Z,23.10
2022-08-18T17:23:09.929Z,23.14
2022-08-18T17:25:36.278Z,23.05
2022-08-18T17:28:06.186Z,23.00
2022-08-18T17:30:38.348Z,22.97
2022-08-18T17:33:15.454Z,22.87
2022-08-18T17:35:42.815Z,22.81
2022-08-18T17:38:13.458Z,22.79
2022-08-18T17:40:44.196Z,22.81
2022-08-18T17:43:12.188Z,22.70
2022-08-18T17:45:38.546Z,22.61
2022-08-18T17:48:13.504Z,22.59
2022-08-18T17:51:05.949Z,22.56
2022-08-18T17:53:32.564Z,22.36
2022-08-18T17:56:05.383Z,22.29
2022-08-18T17:58:42.390Z,22.17
2022-08-18T18:01:09.319Z,22.09
2022-08-18T18:03:35.904Z,22.04
2022-08-18T18:06:12.233Z,22.06
2022-08-18T18:08:48.600Z,22.04
2022-08-18T18:11:14.957Z,22.04
2022-08-18T18:13:41.313Z,22.08
2022-08-18T18:16:34.824Z,22.03
2022-08-18T18:19:03.341Z,22.05
2022-08-18T18:21:57.592Z,22.10
2022-08-18T18:24:17.490Z,22.00
2022-08-18T18:26:50.983Z,21.84
2022-08-18T18:29:21.792Z,21.68
2022-08-18T18:31:51.950Z,21.69
2022-08-18T18:34:39.592Z,21.60
2022-08-18T18:37:22.134Z,21.48
2022-08-18T18:39:53.883Z,21.54
2022-08-18T18:42:24.662Z,21.48
2022-08-18T18:44:52.057Z,21.52
2022-08-18T18:47:24.666Z,21.49
2022-08-18T18:49:53.453Z,21.49
2022-08-18T18:52:38.898Z,21.42
2022-08-18T18:55:06.187Z,21.52
2022-08-18T18:57:39.951Z,21.50
2022-08-18T19:00:20.323Z,21.38
2022-08-18T19:02:47.081Z,21.47
2022-08-18T19:05:43.410Z,21.60
2022-08-18T19:08:26.365Z,21.42
2022-08-18T19:11:07.306Z,21.34
2022-08-18T19:13:39.280Z,21.26
2022-08-18T19:16:11.714Z,21.24
2022-08-18T19:18:57.728Z,21.26
2022-08-18T19:22:04.083Z,21.26
2022-08-18T19:24:23.936Z,21.25
2022-08-18T19:26:51.372Z,21.25
2022-08-18T19:29:18.635Z,21.17
2022-08-18T19:34:18.815Z,21.09
2022-08-18T19:37:00.946Z,21.12
2022-08-18T19:39:32.076Z,20.97
2022-08-18T19:42:04.713Z,20.94
2022-08-18T19:44:34.276Z,20.87
2022-08-18T19:47:04.674Z,20.82
2022-08-18T19:49:57.707Z,20.73
2022-08-18T19:52:46.061Z,20.71
2022-08-18T19:55:32.900Z,20.71
2022-08-18T19:58:08.377Z,20.76
2022-08-18T20:00:49.341Z,20.91
2022-08-18T20:03:28.069Z,20.93
2022-08-18T20:06:34.845Z,20.91
2022-08-18T20:09:08.204Z,21.11
2022-08-18T20:11:41.843Z,20.94
2022-08-18T20:14:12.583Z,21.05
2022-08-18T20:16:43.803Z,20.97
2022-08-18T20:19:30.398Z,20.98
2022-08-18T20:22:00.525Z,20.94
2022-08-18T20:24:30.496Z,20.78
2022-08-18T20:26:57.025Z,20.70
2022-08-18T20:29:36.273Z,20.78
2022-08-18T20:32:03.529Z,20.80
2022-08-18T20:34:30.291Z,20.78
2022-08-18T20:36:58.742Z,20.76
2022-08-18T20:39:44.098Z,20.69
2022-08-18T20:42:22.723Z,20.73
2022-08-18T20:44:52.475Z,20.69
2022-08-18T20:47:37.618Z,20.53
2022-08-18T20:50:22.944Z,20.56
2022-08-18T20:52:58.142Z,20.58
2022-08-18T20:55:26.751Z,20.56
2022-08-18T20:57:59.917Z,20.56
2022-08-18T21:00:27.755Z,20.57
2022-08-18T21:02:58.128Z,20.63
2022-08-18T21:05:27.959Z,20.62
2022-08-18T21:07:59.770Z,20.61
2022-08-18T21:10:28.981Z,20.63
2022-08-18T21:12:56.500Z,20.63
2022-08-18T21:15:24.133Z,20.52
2022-08-18T21:18:17.055Z,20.45
2022-08-18T21:20:43.415Z,20.42
2022-08-18T21:23:11.379Z,20.41
2022-08-18T21:25:40.226Z,20.50
2022-08-18T21:28:06.893Z,20.35
2022-08-18T21:30:34.731Z,20.31
2022-08-18T21:33:02.199Z,20.28
2022-08-18T21:35:30.784Z,20.21
2022-08-18T21:38:01.074Z,20.18
2022-08-18T21:40:29.969Z,20.19
2022-08-18T21:42:56.396Z,20.32
2022-08-18T21:45:23.346Z,20.28
2022-08-18T21:47:53.651Z,20.21
2022-08-18T21:50:23.065Z,20.14
2022-08-18T21:52:53.648Z,20.18
2022-08-18T21:55:20.190Z,20.22
2022-08-18T21:57:48.265Z,20.10
2022-08-18T22:00:17.426Z,20.13
2022-08-18T22:02:44.193Z,20.11
2022-08-18T22:05:11.212Z,19.99
2022-08-18T22:07:44.863Z,19.92
2022-08-18T22:11:02.783Z,20.02
2022-08-18T22:13:47.909Z,20.00
2022-08-18T22:16:27.828Z,19.93
2022-08-18T22:19:11.584Z,20.01
2022-08-18T22:21:41.787Z,19.95
2022-08-18T22:24:19.471Z,19.87
2022-08-18T22:27:06.823Z,19.76
2022-08-18T22:29:45.473Z,19.64
2022-08-18T22:32:12.411Z,19.56
2022-08-18T22:34:40.437Z,19.54
2022-08-18T22:37:12.257Z,19.49
2022-08-18T22:39:40.318Z,19.51
2022-08-18T22:42:06.966Z,19.31
2022-08-18T22:44:33.343Z,19.25
2022-08-18T22:46:59.775Z,19.18
2022-08-18T22:49:26.164Z,19.28
2022-08-18T22:51:53.257Z,19.30
2022-08-18T22:54:19.640Z,19.05
2022-08-18T22:56:56.319Z,19.07
2022-08-18T22:59:25.374Z,19.17
2022-08-18T23:01:53.406Z,19.08
2022-08-18T23:04:20.616Z,19.17
2022-08-18T23:06:51.824Z,19.11
2022-08-18T23:09:21.957Z,19.07
2022-08-18T23:11:48.358Z,19.07
2022-08-18T23:14:14.793Z,19.05
2022-08-18T23:16:46.938Z,19.08
2022-08-18T23:19:14.252Z,18.88
2022-08-18T23:21:40.620Z,18.68
2022-08-18T23:24:07.497Z,18.76
2022-08-18T23:26:34.296Z,18.63
2022-08-18T23:29:00.873Z,18.57
2022-08-18T23:31:27.793Z,18.89
2022-08-18T23:33:54.173Z,18.76
2022-08-18T23:36:20.571Z,18.72
2022-08-18T23:38:46.921Z,18.73
2022-08-18T23:41:13.418Z,18.71
2022-08-18T23:43:39.830Z,18.73
2022-08-18T23:46:17.049Z,18.75
2022-08-18T23:48:49.635Z,18.73
2022-08-18T23:51:23.980Z,18.84
2022-08-18T23:53:52.171Z,18.77
2022-08-18T23:56:18.541Z,18.88
2022-08-18T23:58:46.212Z,18.85
